»·PEaware :: SKW217 KMMH-KSGU

SKW217 :: KMMH-KSGU

FLIGHT INFORMATION

Flight Status: Arrived
Operator:
SkyWest Airlines
More flights by this operator :: More flights under this callsign
Pilot: Max H. (24278)
Aircraft: CANADAIR CL-600 CRJ-700
(CRJ7)
More flights by this aircraft type
Origin: KMMH Mammoth Yosemite
United States
Destination: KSGU St George Mun
United States
More flights between these airports :: More routes between these airports
Route: +OENNS1 OENNS LIDAT J92 BLD UTI
File this flight plan on PilotEdge
Remarks:
Altitude:
(Current/Filed)
35,000ft
Speed:
(Current/Filed)
300kts
Departed: 11-Jun-19 03:50 PM
Arrived: 11-Jun-19 04:58 PM
Distance/Time
Traveled:
257nm/1:08
Distance/Time
To Go:
Arrived

Flight Plot

Page will automatically refresh every two minutes.

Flight plan parsing failed; only flown route is shown


Map Options




Map Legend


Flown Route
Filed Route
Departure Airport
Arrival Airport
Navaid (VOR, NDB)
Fix

Horizontal Profiles

Position Reports

Time Latitude Longitude Heading Altitude Ground
Speed
11-Jun-19 15:15 37.627259 -118.844259 19 7135ft 0kts
11-Jun-19 15:16 37.627259 -118.844259 19 7135ft 0kts
11-Jun-19 15:17 37.627259 -118.844259 19 7135ft 0kts
11-Jun-19 15:18 37.627259 -118.844259 19 7135ft 0kts
11-Jun-19 15:19 37.627259 -118.844259 19 7135ft 0kts
11-Jun-19 15:20 37.627259 -118.844259 19 7135ft 0kts
11-Jun-19 15:21 37.627259 -118.844259 19 7135ft 0kts
11-Jun-19 15:22 37.627259 -118.844259 19 7135ft 0kts
11-Jun-19 15:23 37.627259 -118.844259 19 7135ft 0kts
11-Jun-19 15:24 37.627259 -118.844259 19 7135ft 0kts
11-Jun-19 15:25 37.627259 -118.844259 19 7135ft 0kts
11-Jun-19 15:26 37.627259 -118.844259 19 7135ft 0kts
11-Jun-19 15:27 37.627259 -118.844259 19 7135ft 0kts
11-Jun-19 15:28 37.627259 -118.844259 19 7135ft 0kts
11-Jun-19 15:29 37.627259 -118.844259 19 7135ft 0kts
11-Jun-19 15:30 37.627259 -118.844259 19 7135ft 0kts
11-Jun-19 15:31 37.627259 -118.844259 19 7135ft 0kts
11-Jun-19 15:32 37.627259 -118.844259 19 7135ft 0kts
11-Jun-19 15:33 37.627259 -118.844259 19 7135ft 0kts
11-Jun-19 15:34 37.627259 -118.844259 19 7135ft 0kts
11-Jun-19 15:35 37.627259 -118.844259 19 7135ft 0kts
11-Jun-19 15:36 37.627259 -118.844259 19 7135ft 0kts
11-Jun-19 15:37 37.627259 -118.844259 19 7135ft 0kts
11-Jun-19 15:38 37.627259 -118.844259 19 7135ft 0kts
11-Jun-19 15:39 37.627259 -118.844259 19 7135ft 0kts
11-Jun-19 15:40 37.626884 -118.844269 326 7135ft 2kts
11-Jun-19 15:41 37.626753 -118.843983 288 7135ft 0kts
11-Jun-19 15:42 37.626753 -118.843983 288 7135ft 0kts
11-Jun-19 15:43 37.626753 -118.843983 288 7135ft 0kts
11-Jun-19 15:44 37.626753 -118.843983 288 7135ft 0kts
11-Jun-19 15:45 37.626829 -118.844274 288 7135ft 6kts
11-Jun-19 15:46 37.626913 -118.846499 277 7135ft 7kts
11-Jun-19 15:47 37.627529 -118.849728 199 7135ft 0kts
11-Jun-19 15:48 37.626812 -118.848745 109 7135ft 20kts
11-Jun-19 15:49 37.615153 -118.807260 110 8392ft 160kts
11-Jun-19 15:50 37.594031 -118.736651 110 10247ft 282kts
11-Jun-19 15:51 37.560599 -118.621719 110 12909ft 398kts
11-Jun-19 15:52 37.521751 -118.489676 110 17913ft 392kts
11-Jun-19 15:53 37.505801 -118.363035 91 22320ft 340kts
11-Jun-19 15:54 37.500371 -118.259104 96 25204ft 263kts
11-Jun-19 15:55 37.494471 -118.177875 95 26702ft 190kts
11-Jun-19 15:56 37.489321 -118.101882 95 25973ft 227kts
11-Jun-19 15:57 37.484023 -118.025842 95 26749ft 213kts
11-Jun-19 15:58 37.477721 -117.949329 96 27054ft 222kts
11-Jun-19 15:59 37.473328 -117.873210 92 27487ft 214kts
11-Jun-19 16:00 37.469173 -117.796279 93 27691ft 221kts
11-Jun-19 16:01 37.462317 -117.718286 95 27942ft 228kts
11-Jun-19 16:02 37.456513 -117.635542 95 28226ft 244kts
11-Jun-19 16:03 37.450238 -117.548655 95 28623ft 254kts
11-Jun-19 16:04 37.443575 -117.458513 95 29033ft 263kts
11-Jun-19 16:06 37.436626 -117.365258 95 29052ft 267kts
11-Jun-19 16:07 37.420835 -117.275590 126 29052ft 264kts
11-Jun-19 16:08 37.362962 -117.219974 148 29048ft 263kts
11-Jun-19 16:09 37.301066 -117.168614 145 29018ft 269kts
11-Jun-19 16:10 37.238340 -117.115088 145 29012ft 275kts
11-Jun-19 16:11 37.174337 -117.061059 145 29019ft 279kts
11-Jun-19 16:12 37.109510 -117.006332 145 29021ft 283kts
11-Jun-19 16:13 37.043591 -116.950923 145 29016ft 287kts
11-Jun-19 16:14 36.976761 -116.894809 145 29009ft 291kts
11-Jun-19 16:15 36.909229 -116.838192 145 29003ft 294kts
11-Jun-19 16:16 36.840541 -116.780843 145 28997ft 298kts
11-Jun-19 16:17 36.782061 -116.710045 116 28987ft 296kts
11-Jun-19 16:18 36.746763 -116.616955 116 28980ft 300kts
11-Jun-19 16:19 36.707186 -116.523302 116 28976ft 308kts
11-Jun-19 16:20 36.667399 -116.427993 116 28966ft 312kts
11-Jun-19 16:21 36.626157 -116.329968 116 28528ft 332kts
11-Jun-19 16:22 36.580877 -116.222487 116 27744ft 366kts
11-Jun-19 16:22 36.540134 -116.126214 116 27091ft 385kts
11-Jun-19 16:24 36.482423 -115.989934 116 26155ft 377kts
11-Jun-19 16:25 36.433758 -115.875627 116 25358ft 373kts
11-Jun-19 16:25 36.393278 -115.780898 116 24689ft 371kts
11-Jun-19 16:27 36.336382 -115.648147 116 23987ft 383kts
11-Jun-19 16:28 36.286597 -115.531956 116 23934ft 377kts
11-Jun-19 16:28 36.246213 -115.437962 116 23922ft 363kts
11-Jun-19 16:29 36.199631 -115.330282 116 23913ft 348kts
11-Jun-19 16:31 36.147201 -115.209539 116 23910ft 334kts
11-Jun-19 16:31 36.111002 -115.126471 116 23905ft 326kts
11-Jun-19 16:32 36.098723 -115.021964 68 23030ft 329kts
11-Jun-19 16:33 36.155087 -114.930902 50 21442ft 331kts
11-Jun-19 16:34 36.210380 -114.841807 53 19820ft 323kts
11-Jun-19 16:35 36.264657 -114.754400 52 17826ft 314kts
11-Jun-19 16:36 36.316621 -114.670797 52 15819ft 298kts
11-Jun-19 16:37 36.366965 -114.589164 52 14962ft 300kts
11-Jun-19 16:38 36.417304 -114.507429 53 14970ft 297kts
11-Jun-19 16:39 36.467603 -114.425551 53 14922ft 299kts
11-Jun-19 16:40 36.518495 -114.342496 53 14877ft 301kts
11-Jun-19 16:41 36.569167 -114.259666 53 14881ft 300kts
11-Jun-19 16:42 36.619619 -114.176943 53 14887ft 300kts
11-Jun-19 16:43 36.670103 -114.094021 53 14890ft 300kts
11-Jun-19 16:44 36.720663 -114.010726 53 14894ft 300kts
11-Jun-19 16:45 36.771059 -113.927487 53 14896ft 301kts
11-Jun-19 16:46 36.821105 -113.844740 53 14393ft 298kts
11-Jun-19 16:47 36.870063 -113.763518 53 12292ft 289kts
11-Jun-19 16:48 36.916194 -113.686892 53 11900ft 268kts
11-Jun-19 16:49 36.960275 -113.613453 53 11897ft 260kts
11-Jun-19 16:50 37.003108 -113.541839 53 11906ft 254kts
11-Jun-19 16:51 37.045133 -113.471643 52 11301ft 230kts
11-Jun-19 16:52 37.085664 -113.407307 53 9581ft 238kts
11-Jun-19 16:53 37.121657 -113.411861 279 8003ft 177kts
11-Jun-19 16:54 37.100723 -113.463351 222 5676ft 170kts
11-Jun-19 16:55 37.064780 -113.495311 209 3480ft 150kts
11-Jun-19 16:56 37.036598 -113.510305 204 2847ft 54kts
11-Jun-19 16:57 37.027243 -113.515271 203 2847ft 28kts
11-Jun-19 16:58 37.024846 -113.514235 21 2847ft 16kts
11-Jun-19 16:59 37.030838 -113.511060 22 2847ft 4kts
11-Jun-19 17:00 37.030816 -113.509687 145 2847ft 0kts
11-Jun-19 17:01 37.030816 -113.509687 145 2847ft 0kts
11-Jun-19 17:02 37.030816 -113.509687 145 2847ft 0kts
11-Jun-19 17:03 37.030816 -113.509687 145 2847ft 0kts

Navigation Log

Ident Type
Flight plan parsing failed, navigation log unavailable